Time;durP1;ratioP1;P1;durP2;ratioP2;P2;SDS_P1;SDS_P2;PMS_P1;PMS_P2;Temp;Humidity;BMP_temperature;BMP_pressure;BME280_temperature;BME280_humidity;BME280_pressure;Samples;Min_cycle;Max_cycle;Signal;HPM_P1;HPM_P2
2022/09/24 00:01:53;;;;;;;5.30;4.82;;;17.70;99.90;;;;;;5096185;28;20543;-81
2022/09/24 00:04:18;;;;;;;7.43;5.20;;;17.60;99.90;;;;;;5096294;28;20111;-80
2022/09/24 00:06:46;;;;;;;6.18;5.40;;;17.50;99.90;;;;;;5095758;28;20476;-81
2022/09/24 00:09:14;;;;;;;6.93;5.45;;;17.70;99.90;;;;;;5095903;28;20506;-81
2022/09/24 00:11:42;;;;;;;7.15;5.80;;;17.70;99.90;;;;;;5096142;28;20024;-81
2022/09/24 00:14:08;;;;;;;7.55;5.82;;;17.70;99.90;;;;;;5096063;28;20480;-81
2022/09/24 00:16:34;;;;;;;6.00;5.25;;;17.60;99.90;;;;;;5096018;28;20016;-81
2022/09/24 00:19:02;;;;;;;7.05;6.38;;;17.60;99.90;;;;;;5095956;28;20020;-81
2022/09/24 00:21:30;;;;;;;7.60;6.05;;;17.60;99.90;;;;;;5095369;28;20028;-81
2022/09/24 00:23:58;;;;;;;6.20;5.60;;;17.60;99.90;;;;;;5095874;28;20479;-81
2022/09/24 00:29:11;;;;;;;6.43;5.80;;;17.50;99.90;;;;;;5095950;28;20027;-81
2022/09/24 00:31:37;;;;;;;6.68;6.07;;;17.40;99.90;;;;;;5095844;28;20036;-81
2022/09/24 00:34:03;;;;;;;6.80;6.10;;;17.40;99.90;;;;;;5095351;28;20487;-81
2022/09/24 00:36:28;;;;;;;6.68;6.03;;;17.40;99.90;;;;;;5095212;28;20032;-81
2022/09/24 00:38:57;;;;;;;7.07;6.45;;;17.30;99.90;;;;;;5095490;28;20103;-81
2022/09/24 00:41:28;;;;;;;7.93;6.10;;;17.30;99.90;;;;;;5095660;28;20020;-81
2022/09/24 00:43:55;;;;;;;7.20;6.47;;;17.40;99.90;;;;;;5095617;28;20028;-81
2022/09/24 00:46:50;;;;;;;6.75;6.07;;;17.30;99.90;;;;;;5095342;28;20038;-81
2022/09/24 00:49:19;;;;;;;8.65;6.70;;;17.30;99.90;;;;;;5094779;28;20111;-81
2022/09/24 00:51:47;;;;;;;7.07;6.43;;;17.40;99.90;;;;;;5094917;28;20031;-81
2022/09/24 00:54:23;;;;;;;6.57;5.88;;;17.50;99.90;;;;;;5095375;28;20020;-81
2022/09/24 00:56:51;;;;;;;7.53;6.53;;;17.30;99.90;;;;;;5095147;28;20044;-81
2022/09/24 00:59:21;;;;;;;7.40;6.57;;;17.30;99.90;;;;;;5095094;28;20059;-81
2022/09/24 01:01:48;;;;;;;6.40;5.70;;;17.40;99.90;;;;;;5095011;28;20507;-81
2022/09/24 01:04:19;;;;;;;6.40;5.75;;;17.30;99.90;;;;;;5094759;28;20032;-81
2022/09/24 01:06:46;;;;;;;7.45;6.53;;;17.20;99.90;;;;;;5095082;28;20119;-81
2022/09/24 01:09:12;;;;;;;7.40;6.70;;;17.30;99.90;;;;;;5094701;28;20016;-81
2022/09/24 01:12:02;;;;;;;7.53;6.82;;;17.20;99.90;;;;;;5094904;28;20078;-81
2022/09/24 01:15:05;;;;;;;8.05;7.10;;;17.30;99.90;;;;;;5094862;28;20028;-81
2022/09/24 01:18:01;;;;;;;8.38;7.50;;;17.30;99.90;;;;;;5094685;28;20468;-81
2022/09/24 01:20:52;;;;;;;8.18;7.38;;;17.20;99.90;;;;;;5094530;28;20049;-81
2022/09/24 01:23:23;;;;;;;9.50;7.95;;;17.20;99.90;;;;;;5094725;28;20489;-81
2022/09/24 01:26:07;;;;;;;9.63;7.85;;;17.20;99.90;;;;;;5094493;28;20039;-81
2022/09/24 01:28:36;;;;;;;8.52;7.65;;;17.10;99.90;;;;;;5094500;28;20111;-81
2022/09/24 01:31:13;;;;;;;8.63;7.88;;;17.10;99.90;;;;;;5094489;28;20024;-81
2022/09/24 01:33:40;;;;;;;9.80;8.32;;;17.10;99.90;;;;;;5093867;28;20036;-81
2022/09/24 01:36:08;;;;;;;8.57;7.78;;;17.10;99.90;;;;;;5094674;28;20024;-81
2022/09/24 01:38:43;;;;;;;9.25;8.45;;;17.10;99.90;;;;;;5094368;28;20476;-81
2022/09/24 01:41:11;;;;;;;9.55;8.65;;;17.10;99.90;;;;;;5094291;28;20531;-81
2022/09/24 01:43:38;;;;;;;9.70;8.80;;;17.00;99.90;;;;;;5094222;28;20016;-81
2022/09/24 01:46:05;;;;;;;9.68;8.70;;;17.00;99.90;;;;;;5094127;28;20040;-81
2022/09/24 01:48:34;;;;;;;9.18;8.35;;;17.30;99.90;;;;;;5093842;28;20024;-81
2022/09/24 01:51:26;;;;;;;9.65;8.48;;;17.10;99.90;;;;;;5094036;28;20059;-81
2022/09/24 01:54:02;;;;;;;8.60;7.80;;;17.10;99.90;;;;;;5092818;28;20409;-81
2022/09/24 01:56:37;;;;;;;8.43;7.57;;;17.10;99.90;;;;;;5094025;28;20020;-81
2022/09/24 01:59:11;;;;;;;9.50;7.55;;;17.00;99.90;;;;;;5093133;28;20427;-81
2022/09/24 02:01:48;;;;;;;8.77;7.78;;;17.10;99.90;;;;;;5093906;28;20464;-81
2022/09/24 02:04:18;;;;;;;7.75;7.03;;;17.00;99.90;;;;;;5093621;28;20050;-81
2022/09/24 02:06:59;;;;;;;7.10;6.40;;;17.20;99.90;;;;;;5093874;28;20506;-81
2022/09/24 02:09:33;;;;;;;9.48;6.82;;;17.10;99.90;;;;;;5093615;28;20028;-81
2022/09/24 02:12:25;;;;;;;8.13;6.55;;;17.10;99.90;;;;;;5093786;28;20028;-81
2022/09/24 02:15:07;;;;;;;6.25;5.65;;;17.00;99.90;;;;;;5093641;28;20024;-81
2022/09/24 02:17:36;;;;;;;7.45;6.60;;;17.00;99.90;;;;;;5093317;28;20016;-81
2022/09/24 02:20:07;;;;;;;7.88;6.18;;;17.00;99.90;;;;;;5093581;28;20035;-81
2022/09/24 02:22:33;;;;;;;6.38;5.75;;;17.00;99.90;;;;;;5093439;28;20032;-81
2022/09/24 02:25:02;;;;;;;7.70;5.75;;;17.00;99.90;;;;;;5093672;28;20026;-81
2022/09/24 02:27:28;;;;;;;9.68;6.25;;;16.90;99.90;;;;;;5093536;28;20038;-81
2022/09/24 02:29:58;;;;;;;7.85;6.55;;;16.90;99.90;;;;;;5093220;28;20028;-81
2022/09/24 02:32:28;;;;;;;6.40;5.90;;;16.80;99.90;;;;;;5093113;28;20539;-81
2022/09/24 02:35:02;;;;;;;7.00;6.30;;;16.80;99.90;;;;;;5093184;28;20032;-81
2022/09/24 02:37:32;;;;;;;8.55;6.13;;;16.80;99.90;;;;;;5093412;28;20028;-81
2022/09/24 02:39:58;;;;;;;7.97;5.47;;;16.80;99.90;;;;;;5093315;28;20028;-81
2022/09/24 02:42:23;;;;;;;7.25;5.38;;;16.80;99.90;;;;;;5093165;28;20451;-81
2022/09/24 02:44:49;;;;;;;6.72;5.30;;;16.80;99.90;;;;;;5093231;28;20058;-81
2022/09/24 02:47:15;;;;;;;7.55;6.10;;;16.80;99.90;;;;;;5092700;28;20032;-81
2022/09/24 02:49:41;;;;;;;7.15;5.25;;;16.90;99.90;;;;;;5092940;28;20031;-81
2022/09/24 02:52:06;;;;;;;6.28;5.65;;;16.70;99.90;;;;;;5093120;28;20538;-81
2022/09/24 02:54:32;;;;;;;6.88;5.05;;;16.70;99.90;;;;;;5093010;28;20563;-81
2022/09/24 02:56:58;;;;;;;5.60;5.13;;;16.60;99.90;;;;;;5074857;28;20031;-81
2022/09/24 02:59:23;;;;;;;7.20;4.53;;;16.90;99.90;;;;;;5092992;28;20404;-81
2022/09/24 03:01:49;;;;;;;6.13;5.13;;;16.60;99.90;;;;;;5092640;28;20024;-81
2022/09/24 03:04:15;;;;;;;5.60;4.93;;;17.00;99.90;;;;;;5092969;28;20021;-81
2022/09/24 03:06:41;;;;;;;6.10;5.50;;;16.60;99.90;;;;;;5092721;28;20036;-81
2022/09/24 03:09:06;;;;;;;6.28;5.47;;;16.80;99.90;;;;;;5092659;28;20030;-81
2022/09/24 03:11:34;;;;;;;6.40;5.40;;;16.80;99.90;;;;;;5092786;28;20043;-81
2022/09/24 03:14:00;;;;;;;7.00;5.57;;;16.60;99.90;;;;;;5092753;28;20024;-81
2022/09/24 03:16:26;;;;;;;7.35;5.57;;;16.60;99.90;;;;;;5092426;28;20099;-81
2022/09/24 03:18:52;;;;;;;6.03;5.43;;;16.50;99.90;;;;;;5092688;28;20027;-80
2022/09/24 03:21:19;;;;;;;5.53;4.97;;;16.60;99.90;;;;;;5092721;28;20039;-81
2022/09/24 03:23:45;;;;;;;5.68;5.18;;;16.40;99.90;;;;;;5092780;28;20396;-81
2022/09/24 03:26:11;;;;;;;5.82;4.90;;;16.50;99.90;;;;;;5092649;28;20028;-81
2022/09/24 03:28:37;;;;;;;5.93;5.18;;;16.50;99.90;;;;;;5074493;28;20031;-81
2022/09/24 03:31:03;;;;;;;6.05;5.47;;;16.50;99.90;;;;;;5074027;28;20032;-81
2022/09/24 03:33:40;;;;;;;5.50;5.00;;;16.40;99.90;;;;;;5092522;28;20412;-81
2022/09/24 03:36:19;;;;;;;5.47;4.93;;;16.40;99.90;;;;;;5092521;28;20032;-80
2022/09/24 03:38:47;;;;;;;7.20;5.38;;;16.50;99.90;;;;;;5092572;28;20020;-80
2022/09/24 03:41:13;;;;;;;6.60;5.30;;;16.60;99.90;;;;;;5092456;28;20038;-81
2022/09/24 03:43:39;;;;;;;5.72;5.20;;;16.40;99.90;;;;;;5092064;28;20024;-80
2022/09/24 03:46:06;;;;;;;5.10;4.60;;;16.50;99.90;;;;;;5092508;28;20066;-81
2022/09/24 03:48:33;;;;;;;6.32;5.78;;;16.60;99.90;;;;;;5092248;28;20434;-81
2022/09/24 03:51:06;;;;;;;5.47;5.00;;;16.50;99.90;;;;;;5092538;28;20141;-81
2022/09/24 03:53:32;;;;;;;4.97;4.45;;;16.50;99.90;;;;;;5092401;28;20039;-81
2022/09/24 03:55:58;;;;;;;6.20;4.97;;;16.60;99.90;;;;;;5092488;28;20476;-81
2022/09/24 03:58:24;;;;;;;5.20;4.75;;;16.70;99.90;;;;;;5091890;28;20032;-81
2022/09/24 04:00:54;;;;;;;6.43;4.72;;;16.60;99.90;;;;;;5092373;28;20392;-81
2022/09/24 04:03:21;;;;;;;5.13;4.50;;;16.70;99.90;;;;;;5092468;28;20016;-81
2022/09/24 04:05:47;;;;;;;5.20;4.72;;;16.60;99.90;;;;;;5092237;28;20032;-81
2022/09/24 04:08:13;;;;;;;4.93;4.53;;;16.50;99.90;;;;;;5092318;28;20029;-81
2022/09/24 04:10:39;;;;;;;4.38;3.97;;;16.60;99.90;;;;;;5092111;28;20028;-81
2022/09/24 04:13:04;;;;;;;4.90;4.47;;;16.30;99.90;;;;;;5091832;28;20487;-81
2022/09/24 04:15:30;;;;;;;4.43;4.05;;;16.50;99.90;;;;;;5092285;28;20031;-81
2022/09/24 04:17:57;;;;;;;5.85;4.38;;;16.40;99.90;;;;;;5092156;28;20030;-81
2022/09/24 04:20:25;;;;;;;5.20;4.70;;;16.40;99.90;;;;;;5092141;28;20047;-81
2022/09/24 04:22:53;;;;;;;5.07;4.65;;;16.50;99.90;;;;;;5094213;28;20488;-81
2022/09/24 04:25:20;;;;;;;5.65;4.43;;;16.40;99.90;;;;;;5095813;28;20028;-81
2022/09/24 04:27:51;;;;;;;4.80;4.40;;;16.40;99.90;;;;;;5095433;28;20024;-81
2022/09/24 04:30:17;;;;;;;4.60;4.20;;;16.40;99.90;;;;;;5095616;28;20019;-81
2022/09/24 04:32:42;;;;;;;5.25;4.75;;;16.40;99.90;;;;;;5095717;28;20476;-81
2022/09/24 04:35:08;;;;;;;6.32;4.40;;;16.40;99.90;;;;;;5095476;28;20066;-81
2022/09/24 04:37:34;;;;;;;4.57;4.18;;;16.60;99.90;;;;;;5095517;28;20061;-80
2022/09/24 04:40:01;;;;;;;12.00;4.60;;;16.50;99.90;;;;;;5095701;28;20058;-81
2022/09/24 04:42:27;;;;;;;4.60;4.20;;;16.50;99.90;;;;;;5095080;28;20023;-81
2022/09/24 04:44:52;;;;;;;5.65;4.40;;;16.40;99.90;;;;;;5095476;28;20020;-81
2022/09/24 04:47:18;;;;;;;5.70;4.40;;;16.40;99.90;;;;;;5095347;28;20086;-81
2022/09/24 04:49:44;;;;;;;6.75;4.25;;;16.40;99.90;;;;;;5095284;28;20027;-81
2022/09/24 04:52:13;;;;;;;4.90;4.50;;;16.40;99.90;;;;;;5095336;28;20024;-81
2022/09/24 04:54:45;;;;;;;4.90;4.50;;;16.40;99.90;;;;;;5095377;28;20024;-81
2022/09/24 04:57:13;;;;;;;6.78;4.88;;;16.40;99.90;;;;;;5094904;28;20107;-81
2022/09/24 04:59:38;;;;;;;5.28;4.88;;;16.50;99.90;;;;;;5095027;28;20024;-81
2022/09/24 05:02:06;;;;;;;5.78;5.25;;;16.40;99.90;;;;;;5095217;28;20043;-81
2022/09/24 05:04:32;;;;;;;5.30;4.82;;;16.40;99.90;;;;;;5095106;28;20032;-81
2022/09/24 05:06:57;;;;;;;5.45;5.05;;;16.40;99.90;;;;;;5095021;28;20028;-81
2022/09/24 05:09:23;;;;;;;5.40;4.90;;;16.30;99.90;;;;;;5094854;28;20070;-81
2022/09/24 05:11:48;;;;;;;5.20;4.70;;;16.30;99.90;;;;;;5094541;28;20056;-81
2022/09/24 05:14:14;;;;;;;6.63;4.90;;;16.30;99.90;;;;;;5094935;28;20486;-81
2022/09/24 05:16:39;;;;;;;5.72;5.13;;;16.20;99.90;;;;;;5094910;28;20059;-81
2022/09/24 05:19:05;;;;;;;5.53;5.10;;;16.20;99.90;;;;;;5094660;28;20467;-81
2022/09/24 05:21:31;;;;;;;5.47;5.00;;;16.20;99.90;;;;;;5094639;28;20028;-81
2022/09/24 05:23:56;;;;;;;5.95;5.38;;;16.20;99.90;;;;;;5094771;28;20031;-81
2022/09/24 05:29:06;;;;;;;5.57;5.18;;;16.30;99.90;;;;;;5094658;28;20031;-81
2022/09/24 05:31:32;;;;;;;5.50;5.00;;;16.30;99.90;;;;;;5094409;28;20028;-81
2022/09/24 05:33:57;;;;;;;5.72;5.13;;;16.40;99.90;;;;;;5093290;28;20044;-81
2022/09/24 05:36:25;;;;;;;5.55;5.15;;;16.20;99.90;;;;;;5094459;28;20070;-81
2022/09/24 05:38:51;;;;;;;6.43;5.70;;;16.40;99.90;;;;;;5094316;28;20396;-81
2022/09/24 05:41:17;;;;;;;6.30;5.40;;;16.30;99.90;;;;;;5094183;28;20077;-81
2022/09/24 05:43:43;;;;;;;5.95;5.45;;;16.20;99.90;;;;;;5094287;28;20028;-81
2022/09/24 05:46:08;;;;;;;6.28;5.65;;;16.20;99.90;;;;;;5094244;28;20035;-81
2022/09/24 05:48:34;;;;;;;6.75;6.22;;;16.30;99.90;;;;;;5094070;28;20103;-81
2022/09/24 05:51:00;;;;;;;7.05;5.97;;;16.30;99.90;;;;;;5076173;28;20062;-81
2022/09/24 05:53:26;;;;;;;7.13;6.43;;;16.40;99.90;;;;;;5094213;28;20387;-81
2022/09/24 05:55:52;;;;;;;7.70;7.07;;;16.20;99.90;;;;;;5093820;28;20028;-80
2022/09/24 05:58:17;;;;;;;6.97;6.40;;;16.30;99.90;;;;;;5093964;28;20392;-81
2022/09/24 06:00:44;;;;;;;6.63;6.07;;;16.20;99.90;;;;;;5094035;28;20088;-80
2022/09/24 06:03:15;;;;;;;7.78;7.07;;;16.20;99.90;;;;;;5075715;28;20032;-80
2022/09/24 06:05:48;;;;;;;7.50;6.80;;;16.10;99.90;;;;;;5093824;28;20040;-81
2022/09/24 06:08:18;;;;;;;7.35;6.65;;;16.10;99.90;;;;;;5093905;28;20012;-80
2022/09/24 06:10:46;;;;;;;8.45;6.68;;;16.30;99.90;;;;;;5093378;28;20020;-81
2022/09/24 06:13:13;;;;;;;7.28;6.68;;;16.40;99.90;;;;;;5093757;28;20035;-81
2022/09/24 06:15:40;;;;;;;7.50;6.80;;;16.20;99.90;;;;;;5093525;28;20480;-81
2022/09/24 06:18:05;;;;;;;7.68;6.90;;;16.20;99.90;;;;;;5093707;28;20121;-81
2022/09/24 06:20:32;;;;;;;7.47;6.78;;;16.30;99.90;;;;;;5093596;28;20025;-81
2022/09/24 06:22:57;;;;;;;8.27;7.47;;;16.40;99.90;;;;;;5093619;28;20029;-81
2022/09/24 06:25:24;;;;;;;7.93;7.32;;;16.50;99.90;;;;;;5093070;28;20035;-81
2022/09/24 06:27:59;;;;;;;8.48;7.65;;;16.50;99.90;;;;;;5093398;28;20028;-81
2022/09/24 06:30:28;;;;;;;8.38;7.72;;;16.40;99.90;;;;;;5093287;28;20012;-81
2022/09/24 06:32:54;;;;;;;9.48;7.63;;;16.30;99.90;;;;;;5093225;28;20496;-81
2022/09/24 06:35:20;;;;;;;10.10;9.10;;;16.30;99.90;;;;;;5093411;28;20107;-81
2022/09/24 06:37:48;;;;;;;9.18;8.25;;;16.20;99.90;;;;;;5092819;28;20055;-81
2022/09/24 06:40:14;;;;;;;8.63;7.82;;;16.10;99.90;;;;;;5093206;28;20112;-81
2022/09/24 06:42:39;;;;;;;9.52;8.57;;;16.10;99.90;;;;;;5093365;28;20048;-81
2022/09/24 06:45:06;;;;;;;9.15;8.25;;;16.20;99.90;;;;;;5092649;28;20062;-81
2022/09/24 06:47:31;;;;;;;9.75;8.75;;;16.20;99.90;;;;;;5093113;28;20476;-80
2022/09/24 06:49:57;;;;;;;8.93;7.75;;;16.40;99.90;;;;;;5093179;28;20016;-81
2022/09/24 06:52:22;;;;;;;9.50;8.10;;;16.50;99.90;;;;;;5092695;28;20105;-81
2022/09/24 06:54:48;;;;;;;8.88;8.07;;;16.50;99.90;;;;;;5093168;28;20103;-81
2022/09/24 06:57:14;;;;;;;8.13;7.38;;;16.50;99.90;;;;;;5093042;28;20016;-81
2022/09/24 06:59:40;;;;;;;8.27;7.47;;;16.50;99.90;;;;;;5092899;28;20028;-81
2022/09/24 07:02:09;;;;;;;8.65;7.88;;;16.50;99.90;;;;;;5092981;28;20388;-81
2022/09/24 07:04:34;;;;;;;10.13;9.05;;;16.50;99.90;;;;;;5092834;28;20054;-80
2022/09/24 07:09:44;;;;;;;7.90;7.22;;;16.50;99.90;;;;;;5092872;28;20027;-81
2022/09/24 07:12:09;;;;;;;7.93;6.80;;;16.50;99.90;;;;;;5092861;28;20032;-81
2022/09/24 07:14:35;;;;;;;7.13;6.43;;;16.60;99.90;;;;;;5074707;28;20170;-80
2022/09/24 07:17:01;;;;;;;7.00;6.38;;;16.50;99.90;;;;;;5092706;28;20096;-81
2022/09/24 07:19:27;;;;;;;6.32;5.72;;;16.60;99.90;;;;;;5092771;28;20035;-81
2022/09/24 07:21:52;;;;;;;8.05;6.60;;;16.80;99.90;;;;;;5092480;28;20036;-80
2022/09/24 07:24:18;;;;;;;7.10;6.20;;;16.60;99.90;;;;;;5092796;28;20023;-80
2022/09/24 07:26:43;;;;;;;6.63;6.10;;;16.60;99.90;;;;;;5074589;28;20036;-80
2022/09/24 07:29:09;;;;;;;7.68;6.28;;;16.60;99.90;;;;;;5092574;28;20024;-81
2022/09/24 07:31:35;;;;;;;7.15;6.47;;;16.70;99.90;;;;;;5092613;28;20028;-81
2022/09/24 07:34:00;;;;;;;7.15;6.55;;;16.70;99.90;;;;;;5092650;28;20043;-81
2022/09/24 07:36:30;;;;;;;5.72;5.18;;;16.80;99.90;;;;;;5092156;28;20141;-81
2022/09/24 07:38:57;;;;;;;5.43;5.03;;;17.20;99.90;;;;;;5092519;28;20401;-81
2022/09/24 07:41:22;;;;;;;5.22;4.72;;;16.90;99.90;;;;;;5092608;28;20024;-81
2022/09/24 07:43:48;;;;;;;5.85;4.68;;;16.90;99.90;;;;;;5092644;28;20031;-81
2022/09/24 07:46:14;;;;;;;5.53;5.03;;;16.90;99.90;;;;;;5092471;28;20043;-81
2022/09/24 07:48:39;;;;;;;6.28;5.10;;;17.00;99.90;;;;;;5092393;28;20369;-81
2022/09/24 07:51:08;;;;;;;5.30;4.80;;;17.00;99.90;;;;;;5092149;28;20480;-81
2022/09/24 07:53:34;;;;;;;5.53;5.03;;;17.00;99.90;;;;;;5092310;28;20020;-81
2022/09/24 07:56:00;;;;;;;6.80;4.80;;;17.10;99.90;;;;;;5092534;28;20028;-81
2022/09/24 07:58:25;;;;;;;6.45;3.95;;;17.20;99.90;;;;;;5077412;28;20020;-81
2022/09/24 08:00:51;;;;;;;4.78;4.38;;;17.30;99.90;;;;;;5096195;28;20312;-81
2022/09/24 08:03:17;;;;;;;4.32;3.95;;;17.40;99.90;;;;;;5096331;28;20097;-81
2022/09/24 08:05:45;;;;;;;4.35;3.95;;;17.50;99.90;;;;;;5095654;28;20111;-81
2022/09/24 08:08:11;;;;;;;4.22;3.75;;;17.70;99.90;;;;;;5096189;28;20388;-81
2022/09/24 08:10:37;;;;;;;5.00;4.35;;;17.90;99.90;;;;;;5096035;28;20465;-80
2022/09/24 08:13:03;;;;;;;4.97;4.32;;;17.90;99.90;;;;;;5095929;28;20023;-81
2022/09/24 08:15:29;;;;;;;5.45;4.95;;;17.90;99.90;;;;;;5096191;28;20078;-81
2022/09/24 08:18:03;;;;;;;5.20;4.70;;;17.90;99.90;;;;;;5095909;28;20042;-81
2022/09/24 08:20:30;;;;;;;5.60;5.00;;;17.90;99.90;;;;;;5095608;28;20115;-82
2022/09/24 08:23:08;;;;;;;5.45;4.57;;;18.00;99.90;;;;;;5095976;28;20052;-81
2022/09/24 08:25:34;;;;;;;6.20;4.95;;;18.00;99.90;;;;;;5095619;28;20036;-81
2022/09/24 08:28:01;;;;;;;5.10;4.60;;;17.90;99.90;;;;;;5095761;28;20362;-81
2022/09/24 08:30:28;;;;;;;5.28;4.88;;;17.80;99.90;;;;;;5095550;28;20020;-81
2022/09/24 08:32:54;;;;;;;5.72;5.18;;;17.70;99.90;;;;;;5095579;28;20024;-80
2022/09/24 08:35:20;;;;;;;5.30;4.80;;;17.80;99.90;;;;;;5095303;28;20210;-81
2022/09/24 08:37:45;;;;;;;5.38;4.88;;;17.90;99.90;;;;;;5095523;28;20056;-81
2022/09/24 08:40:22;;;;;;;5.10;4.60;;;18.00;99.90;;;;;;5077340;28;20024;-81
2022/09/24 08:43:18;;;;;;;7.78;5.53;;;18.00;99.90;;;;;;5095525;28;20565;-81
2022/09/24 08:48:41;;;;;;;7.05;5.32;;;18.50;99.90;;;;;;5095143;28;20074;-81
2022/09/24 08:51:12;;;;;;;6.13;4.78;;;18.60;99.90;;;;;;5095385;28;20047;-81
2022/09/24 08:53:52;;;;;;;5.40;4.70;;;18.60;99.90;;;;;;5095284;28;20103;-81
2022/09/24 08:56:25;;;;;;;4.40;4.00;;;18.70;99.90;;;;;;5095136;28;20032;-81
2022/09/24 08:59:16;;;;;;;5.20;4.70;;;18.70;99.90;;;;;;5095198;28;20028;-81
2022/09/24 09:01:46;;;;;;;5.75;4.35;;;18.70;99.90;;;;;;5095045;28;20060;-81
2022/09/24 09:04:36;;;;;;;7.57;4.38;;;18.70;99.90;;;;;;5094732;28;20027;-81
2022/09/24 09:07:11;;;;;;;5.03;4.05;;;18.70;99.90;;;;;;5094942;28;20432;-81
2022/09/24 09:10:06;;;;;;;4.72;4.18;;;18.80;99.90;;;;;;5094648;28;20031;-81
2022/09/24 09:12:52;;;;;;;5.30;4.00;;;18.70;99.90;;;;;;5085982;28;20054;-81
2022/09/24 09:15:27;;;;;;;4.43;4.03;;;18.90;99.90;;;;;;5094870;28;20070;-81
2022/09/24 09:18:09;;;;;;;5.63;4.28;;;18.90;99.90;;;;;;5094323;28;20630;-81
2022/09/24 09:20:40;;;;;;;4.65;3.50;;;19.10;99.90;;;;;;5094686;28;20119;-81
2022/09/24 09:23:19;;;;;;;5.03;3.70;;;19.00;99.90;;;;;;5094775;28;20035;-81
2022/09/24 09:25:57;;;;;;;4.60;4.00;;;19.20;99.90;;;;;;5094594;28;20032;-81
2022/09/24 09:28:25;;;;;;;4.75;3.53;;;19.30;99.90;;;;;;5094593;28;20050;-81
2022/09/24 09:31:17;;;;;;;5.03;3.78;;;19.50;99.90;;;;;;5094570;28;20028;-81
2022/09/24 09:33:58;;;;;;;4.05;3.65;;;20.00;99.90;;;;;;5094013;28;20145;-81
2022/09/24 09:36:27;;;;;;;5.60;3.45;;;23.00;99.90;;;;;;5094496;28;20034;-81
2022/09/24 09:39:08;;;;;;;3.75;3.10;;;26.80;99.90;;;;;;5094374;28;20103;-81
2022/09/24 09:42:02;;;;;;;4.45;2.97;;;25.40;99.90;;;;;;5094241;28;20035;-82
2022/09/24 09:44:30;;;;;;;5.05;3.33;;;23.20;99.90;;;;;;5094378;28;20020;-81
2022/09/24 09:47:31;;;;;;;4.85;3.00;;;22.90;99.90;;;;;;5093772;28;20092;-81
2022/09/24 09:50:05;;;;;;;3.33;2.78;;;24.00;99.90;;;;;;5094280;28;20429;-81
2022/09/24 09:52:35;;;;;;;3.15;2.75;;;25.20;99.90;;;;;;5094152;28;20050;-81
2022/09/24 09:55:05;;;;;;;3.85;2.45;;;25.50;99.90;;;;;;5094159;28;20023;-81
2022/09/24 09:57:34;;;;;;;2.88;2.38;;;27.10;99.90;;;;;;5093994;28;20076;-81
2022/09/24 10:00:01;;;;;;;2.83;2.40;;;29.40;99.90;;;;;;5093971;28;20028;-82
2022/09/24 10:02:32;;;;;;;3.17;2.10;;;32.40;99.90;;;;;;5093489;28;20031;-81
2022/09/24 10:05:00;;;;;;;2.30;2.08;;;36.10;99.90;;;;;;5093922;28;20028;-82
2022/09/24 10:07:26;;;;;;;2.72;2.10;;;38.80;99.90;;;;;;5093738;28;20043;-82
2022/09/24 10:10:01;;;;;;;3.17;1.90;;;36.30;99.90;;;;;;5093729;28;20032;-82
2022/09/24 10:12:27;;;;;;;3.53;2.20;;;36.70;99.90;;;;;;5093773;28;20020;-82
2022/09/24 10:15:00;;;;;;;5.63;2.55;;;33.00;99.90;;;;;;5093776;28;20032;-81
2022/09/24 10:17:47;;;;;;;2.90;2.60;;;28.70;99.90;;;;;;5093375;28;20385;-81
2022/09/24 10:20:26;;;;;;;2.78;2.58;;;26.80;99.90;;;;;;5093142;28;20020;-82
2022/09/24 10:22:53;;;;;;;2.75;2.50;;;25.30;99.90;;;;;;5093573;28;20390;-83
2022/09/24 10:25:28;;;;;;;2.67;2.08;;;27.10;99.90;;;;;;5093445;28;20381;-82
2022/09/24 10:30:32;;;;;;;1.98;1.77;;;31.10;99.90;;;;;;5093347;28;20110;-82
2022/09/24 10:31:20;;;;;;;2.65;1.83;;;33.90;99.90;;;;;;5092875;28;20028;-79
2022/09/24 10:33:49;;;;;;;3.55;1.90;;;39.70;99.90;;;;;;4994685;28;20526;-79
2022/09/24 10:36:26;;;;;;;2.60;2.40;;;39.30;99.90;;;;;;5011446;28;20030;-79
2022/09/24 10:39:13;;;;;;;2.15;1.90;;;33.50;99.90;;;;;;5011225;28;20046;-79
2022/09/24 10:41:50;;;;;;;2.90;1.80;;;33.30;99.90;;;;;;5011239;28;20460;-79
2022/09/24 10:44:17;;;;;;;4.47;2.60;;;27.70;99.90;;;;;;5010869;28;20141;-79
2022/09/24 10:47:00;;;;;;;2.15;2.05;;;25.80;99.90;;;;;;5011237;28;20052;-79
2022/09/24 10:49:44;;;;;;;2.83;1.73;;;26.10;99.90;;;;;;5011015;28;20022;-79
2022/09/24 10:52:31;;;;;;;1.75;1.65;;;26.20;99.90;;;;;;5011097;28;20034;-79
2022/09/24 10:55:05;;;;;;;2.30;1.60;;;26.10;99.90;;;;;;5011013;28;20391;-79
2022/09/24 10:57:43;;;;;;;2.80;2.20;;;25.30;99.90;;;;;;5011017;28;20046;-82
2022/09/24 11:00:15;;;;;;;4.13;2.00;;;24.80;99.90;;;;;;5010835;28;20029;-82
2022/09/24 11:03:23;;;;;;;1.83;1.73;;;25.30;99.90;;;;;;5010896;28;20037;-82
2022/09/24 11:06:17;;;;;;;1.55;1.45;;;24.30;99.90;;;;;;5010776;28;20041;-82
2022/09/24 11:09:11;;;;;;;1.90;1.80;;;23.90;99.90;;;;;;5010778;28;20034;-81
2022/09/24 11:11:49;;;;;;;1.63;1.52;;;23.60;99.90;;;;;;5072580;28;20103;-82
2022/09/24 11:14:22;;;;;;;2.08;1.70;;;25.10;99.90;;;;;;5072297;28;20028;-81
2022/09/24 11:17:00;;;;;;;2.55;1.83;;;26.20;99.90;;;;;;5072685;28;20027;-82
2022/09/24 11:19:38;;;;;;;2.10;1.90;;;25.50;99.90;;;;;;5072510;28;20469;-82
2022/09/24 11:22:14;;;;;;;1.88;1.67;;;25.60;99.90;;;;;;5072569;28;20099;-82
2022/09/24 11:24:58;;;;;;;1.77;1.60;;;29.60;99.90;;;;;;5072677;28;20020;-82
2022/09/24 11:27:36;;;;;;;2.20;1.50;;;35.00;99.90;;;;;;5072361;28;20032;-81
2022/09/24 11:30:15;;;;;;;1.77;1.67;;;29.90;99.90;;;;;;5075770;28;20016;-82
2022/09/24 11:33:02;;;;;;;1.67;1.58;;;26.90;99.90;;;;;;5094683;28;20028;-82
2022/09/24 11:36:04;;;;;;;1.92;1.70;;;25.50;99.90;;;;;;5096851;28;20036;-82
2022/09/24 11:39:00;;;;;;;1.77;1.67;;;24.80;99.90;;;;;;5096680;28;20381;-82
2022/09/24 11:41:49;;;;;;;2.08;1.60;;;24.40;99.90;;;;;;5096828;28;20369;-82
2022/09/24 11:44:24;;;;;;;1.77;1.67;;;24.30;99.90;;;;;;5096312;28;20482;-81
2022/09/24 11:47:20;;;;;;;3.10;1.95;;;24.10;99.90;;;;;;5096536;28;20039;-82
2022/09/24 11:50:04;;;;;;;2.47;1.80;;;23.70;99.90;;;;;;5079234;28;20028;-81
2022/09/24 11:52:42;;;;;;;1.83;1.73;;;23.60;99.90;;;;;;5096557;28;20032;-82
2022/09/24 11:55:33;;;;;;;2.03;1.90;;;23.50;99.90;;;;;;5096515;28;20020;-82
2022/09/24 11:57:58;;;;;;;2.15;1.80;;;23.50;99.90;;;;;;5096163;28;20056;-81
2022/09/24 12:00:30;;;;;;;1.90;1.70;;;23.40;99.90;;;;;;5096318;28;20048;-81
2022/09/24 12:03:04;;;;;;;2.22;2.03;;;23.20;99.90;;;;;;5096174;28;20441;-81
2022/09/24 12:05:43;;;;;;;2.33;1.80;;;23.40;99.90;;;;;;5096166;28;20465;-81
2022/09/24 12:08:53;;;;;;;2.47;2.20;;;23.90;99.90;;;;;;5096201;28;20081;-82
2022/09/24 12:11:33;;;;;;;2.95;1.92;;;24.50;99.90;;;;;;4994002;28;20045;-81
2022/09/24 12:14:10;;;;;;;2.20;2.00;;;24.40;99.90;;;;;;4994284;28;20368;-81
2022/09/24 12:16:38;;;;;;;2.00;1.85;;;23.90;99.90;;;;;;4994322;28;20050;-82
2022/09/24 12:19:07;;;;;;;2.45;1.90;;;23.80;99.90;;;;;;4993928;28;20039;-81
2022/09/24 12:21:40;;;;;;;2.40;2.20;;;23.80;99.90;;;;;;4977842;28;20065;-81
2022/09/24 12:24:25;;;;;;;2.13;1.92;;;23.60;99.90;;;;;;4994119;28;20030;-82
2022/09/24 12:26:56;;;;;;;2.00;1.90;;;23.50;99.90;;;;;;4986593;28;20074;-81
2022/09/24 12:32:59;;;;;;;2.35;2.15;;;23.60;99.90;;;;;;4974643;28;20129;-82
2022/09/24 12:36:03;;;;;;;2.50;2.30;;;24.50;99.90;;;;;;4974559;28;20122;-81
2022/09/24 12:38:43;;;;;;;2.50;2.20;;;24.50;99.90;;;;;;4974260;28;20098;-82
2022/09/24 12:41:22;;;;;;;2.08;1.88;;;24.80;99.90;;;;;;4974120;28;20081;-81
2022/09/24 12:44:09;;;;;;;3.22;2.20;;;25.70;99.90;;;;;;4973834;28;20037;-81
2022/09/24 12:46:55;;;;;;;1.90;1.80;;;28.00;99.90;;;;;;5013276;28;20038;-82
2022/09/24 12:49:23;;;;;;;2.28;1.85;;;27.00;99.90;;;;;;5013330;28;20037;-81
2022/09/24 12:51:57;;;;;;;2.15;1.95;;;25.80;99.90;;;;;;5013163;28;20414;-82
2022/09/24 12:54:26;;;;;;;1.80;1.70;;;24.70;99.90;;;;;;5013242;28;20033;-81
2022/09/24 12:57:03;;;;;;;2.10;1.95;;;23.90;99.90;;;;;;5012709;28;20022;-82
2022/09/24 12:59:29;;;;;;;2.33;2.08;;;23.60;99.90;;;;;;5013093;28;20026;-82
2022/09/24 13:02:12;;;;;;;2.70;2.47;;;24.00;99.90;;;;;;5012947;28;20499;-82
2022/09/24 13:04:43;;;;;;;2.20;2.00;;;24.90;99.90;;;;;;5013119;28;20474;-82
2022/09/24 13:07:33;;;;;;;3.45;2.67;;;24.30;99.90;;;;;;5015618;28;20042;-81
2022/09/24 13:10:17;;;;;;;2.45;2.25;;;23.80;99.90;;;;;;5083985;28;20060;-81
2022/09/24 13:12:44;;;;;;;2.40;2.20;;;23.40;99.90;;;;;;5094966;28;20111;-81
2022/09/24 13:15:26;;;;;;;3.60;2.30;;;23.10;99.90;;;;;;5094816;28;20104;-82
2022/09/24 13:18:05;;;;;;;2.22;1.98;;;23.00;99.90;;;;;;5094789;28;20416;-82
2022/09/24 13:20:33;;;;;;;2.33;2.13;;;22.90;99.90;;;;;;5094922;28;20472;-82
2022/09/24 13:23:13;;;;;;;4.03;2.10;;;22.70;99.90;;;;;;5094860;28;20031;-81
2022/09/24 13:25:39;;;;;;;2.95;2.45;;;22.80;99.90;;;;;;5094258;28;20032;-82